首页
METAR-TAF:

METAR-TAF

机场 :

拉奥罗拉国际机场

瓜地馬拉, 危地马拉

纬度: 14-35N, 经度: 090-31W, 海拔: 1489米

当前天气观测

该预报发布于36分钟前的18:00 UTC
风速8节,风向
温度 25°C
湿度 57%
气压 1027 hPa
能见度10公里或以上
多云层高于1800英尺
散云层高于8000英尺

METAR: MGGT 171800Z 36008KT 9999 BKN018 SCT080 25/16 Q1027 A3033

时间: 12:36 (18:36 UTC)

预报

预报有效从17日的 18点(UTC)到 18日的 18点(UTC)
风速8节,风向东北
能见度10公里或以上
散云层高于1800英尺
散云层高于9000英尺
短暂存在
从 17日的 20点(UTC)到 18日的 03点(UTC)
风速10节,风向
能見度: 7000
散云层高于2000英尺, 塔状积云.
少量云层高于2500英尺, 积雨云.
雷暴, 雨
几率 40%
从 18日的 03点(UTC)到 18日的 15点(UTC)
能見度: 8000
多云层高于1200英尺
阴天层高于8000英尺
雨, 毛毛雨
成为
从 18日的 02点(UTC)到 18日的 04点(UTC)
风速8节,风向
散云层高于1600英尺
成为
从 18日的 06点(UTC)到 18日的 08点(UTC)
散云层高于1200英尺
成为
从 18日的 15点(UTC)到 18日的 17点(UTC)
散云层高于1800英尺

TAF: MGGT 1718/1818 04008KT 9999 SCT018 SCT090 TX25/1720Z TN16/1812Z TEMPO 1720/1803 18010KT 7000 TSRA SCT020TCU FEW025CB PROB40 1803/1815 8000 RADZ BKN012 OVC080 BECMG 1802/1804 36008KT SCT016 BECMG 1806/1808 SCT012 BECMG 1815/1817 SCT018

超过4000个机场的气象观测和天气预报(METAR&TAF报告)。

可查询的气象台以黄色和红色小点在地图上表示。

将鼠标移到小点上方,可查看气象台名称。

然后点击查看天气观测和预报。

如需切换地图:点击带黑十字的绿色按钮放大地图;点击带横线的绿色按钮缩小地图;或者点击绿色箭头查看邻近地区的地图。


METAR-TAF: